Time;durP1;ratioP1;P1;durP2;ratioP2;P2;SDS_P1;SDS_P2;PMS_P1;PMS_P2;Temp;Humidity;BMP_temperature;BMP_pressure;BME280_temperature;BME280_humidity;BME280_pressure;Samples;Min_cycle;Max_cycle;Signal;HPM_P1;HPM_P2
2022/10/19 00:00:33;;;;;;;12.35;11.05;;;;;;;;;;5185132;28;20029;-67
2022/10/19 00:03:03;;;;;;;19.77;11.60;;;;;;;;;;5167641;28;20018;-67
2022/10/19 00:05:34;;;;;;;15.00;11.95;;;;;;;;;;5167648;28;20022;-67
2022/10/19 00:08:04;;;;;;;14.95;12.18;;;;;;;;;;5167788;28;20548;-68
2022/10/19 00:10:38;;;;;;;16.85;15.18;;;;;;;;;;5167566;28;20065;-67
2022/10/19 00:13:08;;;;;;;18.63;12.65;;;;;;;;;;5167807;28;20018;-67
2022/10/19 00:15:39;;;;;;;19.45;12.50;;;;;;;;;;5167228;28;20565;-68
2022/10/19 00:18:09;;;;;;;15.18;12.82;;;;;;;;;;5167519;28;20022;-67
2022/10/19 00:20:39;;;;;;;18.65;13.73;;;;;;;;;;5167674;28;20026;-67
2022/10/19 00:23:10;;;;;;;19.52;14.32;;;;;;;;;;5167527;28;20447;-68
2022/10/19 00:25:40;;;;;;;23.98;13.23;;;;;;;;;;5167328;28;20021;-67
2022/10/19 00:28:10;;;;;;;14.95;13.65;;;;;;;;;;5167322;28;20024;-67
2022/10/19 00:30:41;;;;;;;22.10;19.77;;;;;;;;;;5167513;28;20048;-67
2022/10/19 00:33:11;;;;;;;15.10;12.38;;;;;;;;;;5167587;28;20018;-67
2022/10/19 00:35:42;;;;;;;16.17;13.43;;;;;;;;;;5167244;28;20018;-67
2022/10/19 00:38:13;;;;;;;21.15;14.27;;;;;;;;;;5167359;28;20026;-69
2022/10/19 00:40:44;;;;;;;10.82;10.02;;;;;;;;;;5167243;28;20049;-67
2022/10/19 00:43:16;;;;;;;15.30;10.88;;;;;;;;;;5167478;28;20238;-67
2022/10/19 00:45:46;;;;;;;17.65;9.63;;;;;;;;;;5170560;28;20115;-67
2022/10/19 00:48:21;;;;;;;10.00;9.32;;;;;;;;;;5171361;28;20053;-67
2022/10/19 00:50:53;;;;;;;10.70;9.73;;;;;;;;;;5171066;28;20481;-68
2022/10/19 00:53:24;;;;;;;11.65;9.95;;;;;;;;;;5170804;28;20172;-68
2022/10/19 00:55:56;;;;;;;12.57;8.57;;;;;;;;;;5171399;28;20748;-68
2022/10/19 00:58:26;;;;;;;15.98;9.65;;;;;;;;;;5171086;28;20044;-67
2022/10/19 01:00:58;;;;;;;15.27;10.75;;;;;;;;;;5171145;28;20026;-69
2022/10/19 01:03:28;;;;;;;11.02;8.30;;;;;;;;;;5170567;28;20032;-67
2022/10/19 01:05:58;;;;;;;13.75;9.90;;;;;;;;;;5188677;28;20486;-67
2022/10/19 01:08:29;;;;;;;19.40;10.77;;;;;;;;;;5171178;28;20018;-67
2022/10/19 01:11:18;;;;;;;9.95;9.00;;;;;;;;;;5171168;28;20118;-67
2022/10/19 01:14:05;;;;;;;10.30;9.35;;;;;;;;;;5171189;28;20371;-67
2022/10/19 01:16:35;;;;;;;16.27;10.13;;;;;;;;;;5171347;28;20067;-67
2022/10/19 01:19:05;;;;;;;19.83;9.15;;;;;;;;;;5189054;28;20101;-69
2022/10/19 01:22:02;;;;;;;10.98;9.85;;;;;;;;;;5171170;28;20021;-67
2022/10/19 01:24:51;;;;;;;10.27;8.63;;;;;;;;;;5133918;28;20030;-66
2022/10/19 01:27:40;;;;;;;9.77;9.02;;;;;;;;;;5171362;28;20060;-67
2022/10/19 01:30:12;;;;;;;22.23;10.73;;;;;;;;;;5171111;28;20655;-67
2022/10/19 01:32:42;;;;;;;10.00;8.98;;;;;;;;;;5170193;28;20022;-67
2022/10/19 01:35:26;;;;;;;9.15;8.35;;;;;;;;;;5188050;28;20125;-68
2022/10/19 01:38:02;;;;;;;11.35;9.13;;;;;;;;;;5170489;28;20034;-68
2022/10/19 01:40:59;;;;;;;16.05;9.13;;;;;;;;;;5170390;28;20040;-67
2022/10/19 01:43:29;;;;;;;11.98;9.43;;;;;;;;;;5165332;28;20034;-68
2022/10/19 01:46:19;;;;;;;10.02;8.77;;;;;;;;;;5170355;28;20072;-67
2022/10/19 01:48:53;;;;;;;27.02;13.02;;;;;;;;;;5186995;28;20040;-67
2022/10/19 01:51:27;;;;;;;10.80;9.73;;;;;;;;;;5169925;28;20010;-67
2022/10/19 01:53:59;;;;;;;12.65;10.02;;;;;;;;;;5170035;28;20026;-68
2022/10/19 01:56:30;;;;;;;15.52;10.48;;;;;;;;;;5169519;28;20023;-67
2022/10/19 01:59:02;;;;;;;12.80;10.57;;;;;;;;;;5170075;28;20037;-67
2022/10/19 02:01:34;;;;;;;12.00;9.30;;;;;;;;;;5170023;28;20028;-70
2022/10/19 02:04:04;;;;;;;16.73;11.57;;;;;;;;;;5169592;28;20124;-68
2022/10/19 02:06:35;;;;;;;11.68;10.57;;;;;;;;;;5169733;28;20121;-67
2022/10/19 02:09:05;;;;;;;13.70;9.88;;;;;;;;;;5169843;28;20406;-67
2022/10/19 02:11:36;;;;;;;11.18;10.13;;;;;;;;;;5169915;28;20018;-68
2022/10/19 02:14:10;;;;;;;13.00;11.02;;;;;;;;;;5169537;28;20032;-68
2022/10/19 02:16:46;;;;;;;13.43;12.30;;;;;;;;;;5169796;28;20032;-68
2022/10/19 02:19:17;;;;;;;9.85;7.82;;;;;;;;;;5169731;28;20167;-67
2022/10/19 02:21:47;;;;;;;18.38;9.88;;;;;;;;;;5169439;28;20545;-68
2022/10/19 02:24:17;;;;;;;18.35;9.25;;;;;;;;;;5169589;28;20030;-68
2022/10/19 02:26:49;;;;;;;19.40;9.55;;;;;;;;;;5169545;28;20052;-68
2022/10/19 02:29:19;;;;;;;11.45;9.57;;;;;;;;;;5169017;28;20018;-67
2022/10/19 02:31:49;;;;;;;10.93;9.75;;;;;;;;;;5169371;28;20022;-68
2022/10/19 02:34:20;;;;;;;13.35;10.65;;;;;;;;;;5169071;28;20018;-67
2022/10/19 02:36:50;;;;;;;13.98;9.90;;;;;;;;;;5169297;28;20105;-68
2022/10/19 02:39:21;;;;;;;13.27;10.90;;;;;;;;;;5186739;28;20084;-68
2022/10/19 02:41:57;;;;;;;13.38;11.02;;;;;;;;;;5168989;28;20095;-67
2022/10/19 02:44:42;;;;;;;11.48;10.43;;;;;;;;;;5168416;28;20547;-67
2022/10/19 02:47:33;;;;;;;12.00;10.93;;;;;;;;;;5186513;28;20025;-67
2022/10/19 02:50:04;;;;;;;11.88;10.73;;;;;;;;;;5151914;28;20037;-67
2022/10/19 02:52:38;;;;;;;11.05;10.15;;;;;;;;;;5169249;28;20030;-67
2022/10/19 02:55:09;;;;;;;28.73;11.80;;;;;;;;;;5186238;28;20022;-69
2022/10/19 02:57:39;;;;;;;13.02;9.25;;;;;;;;;;5168800;28;20029;-68
2022/10/19 03:00:10;;;;;;;13.07;10.73;;;;;;;;;;5168603;28;20022;-68
2022/10/19 03:02:41;;;;;;;17.95;13.88;;;;;;;;;;5168624;28;20025;-67
2022/10/19 03:05:11;;;;;;;10.27;9.50;;;;;;;;;;5168463;28;20026;-68
2022/10/19 03:07:42;;;;;;;17.67;11.48;;;;;;;;;;5167661;28;20018;-67
2022/10/19 03:10:12;;;;;;;16.13;10.90;;;;;;;;;;5168238;28;20009;-67
2022/10/19 03:12:42;;;;;;;18.00;11.65;;;;;;;;;;5168741;28;20112;-67
2022/10/19 03:15:16;;;;;;;11.43;10.70;;;;;;;;;;5167874;28;20022;-67
2022/10/19 03:17:46;;;;;;;22.00;11.65;;;;;;;;;;5168618;28;20018;-67
2022/10/19 03:20:17;;;;;;;16.00;14.35;;;;;;;;;;5168287;28;20034;-67
2022/10/19 03:22:47;;;;;;;17.98;12.00;;;;;;;;;;5186143;28;20045;-67
2022/10/19 03:25:17;;;;;;;15.63;13.70;;;;;;;;;;5168420;28;20072;-67
2022/10/19 03:27:48;;;;;;;16.40;11.40;;;;;;;;;;5168213;28;20496;-67
2022/10/19 03:30:18;;;;;;;13.15;10.48;;;;;;;;;;5168269;28;20402;-67
2022/10/19 03:32:49;;;;;;;17.80;13.82;;;;;;;;;;5168246;28;20025;-67
2022/10/19 03:35:19;;;;;;;11.45;10.40;;;;;;;;;;5168151;28;20386;-67
2022/10/19 03:37:50;;;;;;;16.83;12.80;;;;;;;;;;5185588;28;20029;-67
2022/10/19 03:40:20;;;;;;;15.90;11.63;;;;;;;;;;5167953;28;20403;-67
2022/10/19 03:42:50;;;;;;;19.60;13.25;;;;;;;;;;5168223;28;20113;-67
2022/10/19 03:45:20;;;;;;;20.17;14.60;;;;;;;;;;5167558;28;20028;-68
2022/10/19 03:47:51;;;;;;;13.02;12.00;;;;;;;;;;5168050;28;20021;-67
2022/10/19 03:50:21;;;;;;;14.57;12.88;;;;;;;;;;5168152;28;20022;-67
2022/10/19 03:52:53;;;;;;;19.30;13.65;;;;;;;;;;5167969;28;20026;-67
2022/10/19 03:55:23;;;;;;;18.02;15.68;;;;;;;;;;5185050;28;20028;-67
2022/10/19 03:57:54;;;;;;;12.98;12.05;;;;;;;;;;5167831;28;20022;-67
2022/10/19 04:00:24;;;;;;;15.75;14.02;;;;;;;;;;5168202;28;20063;-67
2022/10/19 04:02:54;;;;;;;14.50;13.10;;;;;;;;;;5167675;28;20022;-68
2022/10/19 04:05:25;;;;;;;20.85;12.68;;;;;;;;;;5167266;28;20069;-67
2022/10/19 04:07:55;;;;;;;23.52;14.00;;;;;;;;;;5167857;28;20533;-67
2022/10/19 04:10:25;;;;;;;12.60;11.68;;;;;;;;;;5168355;28;20022;-67
2022/10/19 04:12:55;;;;;;;26.67;14.85;;;;;;;;;;5205870;28;20026;-67
2022/10/19 04:15:26;;;;;;;19.70;13.13;;;;;;;;;;5187932;28;20041;-67
2022/10/19 04:17:56;;;;;;;18.52;13.65;;;;;;;;;;5187847;28;20026;-67
2022/10/19 04:20:26;;;;;;;23.25;13.80;;;;;;;;;;5191074;28;20028;-67
2022/10/19 04:22:56;;;;;;;14.90;13.70;;;;;;;;;;5192212;28;20160;-67
2022/10/19 04:25:27;;;;;;;18.63;13.77;;;;;;;;;;5191463;28;20021;-67
2022/10/19 04:27:57;;;;;;;17.42;12.77;;;;;;;;;;5192085;28;20080;-67
2022/10/19 04:30:27;;;;;;;18.98;14.48;;;;;;;;;;5192073;28;20021;-67
2022/10/19 04:32:57;;;;;;;17.73;15.82;;;;;;;;;;5192003;28;20076;-67
2022/10/19 04:35:28;;;;;;;15.32;13.57;;;;;;;;;;5191752;28;20666;-70
2022/10/19 04:37:58;;;;;;;16.20;14.73;;;;;;;;;;5191651;28;20022;-67
2022/10/19 04:40:28;;;;;;;14.93;13.60;;;;;;;;;;5191708;28;20500;-67
2022/10/19 04:42:59;;;;;;;17.65;13.80;;;;;;;;;;5191788;28;20030;-67
2022/10/19 04:45:29;;;;;;;14.18;12.93;;;;;;;;;;5191966;28;20125;-67
2022/10/19 04:47:59;;;;;;;16.52;15.18;;;;;;;;;;5191612;28;20112;-67
2022/10/19 04:50:30;;;;;;;16.88;12.43;;;;;;;;;;5191749;28;20044;-67
2022/10/19 04:53:00;;;;;;;19.05;16.33;;;;;;;;;;5191645;28;20143;-67
2022/10/19 04:55:30;;;;;;;15.20;13.90;;;;;;;;;;5191620;28;20393;-67
2022/10/19 04:58:00;;;;;;;19.60;17.42;;;;;;;;;;5208904;28;20112;-67
2022/10/19 05:00:31;;;;;;;16.48;14.85;;;;;;;;;;5191382;28;20021;-67
2022/10/19 05:03:01;;;;;;;17.52;15.65;;;;;;;;;;5191573;28;20025;-66
2022/10/19 05:05:32;;;;;;;37.05;17.20;;;;;;;;;;5190913;28;20059;-67
2022/10/19 05:08:02;;;;;;;21.65;17.40;;;;;;;;;;5191549;28;20436;-67
2022/10/19 05:10:33;;;;;;;22.52;18.35;;;;;;;;;;5189888;28;20071;-66
2022/10/19 05:13:03;;;;;;;21.27;14.55;;;;;;;;;;5181292;28;20026;-66
2022/10/19 05:15:33;;;;;;;20.15;17.23;;;;;;;;;;5187723;28;20030;-67
2022/10/19 05:18:04;;;;;;;18.65;16.50;;;;;;;;;;5170592;28;20117;-66
2022/10/19 05:20:34;;;;;;;19.95;18.15;;;;;;;;;;5170703;28;20514;-66
2022/10/19 05:23:04;;;;;;;18.98;17.35;;;;;;;;;;5170302;28;20018;-67
2022/10/19 05:25:34;;;;;;;21.35;18.73;;;;;;;;;;5170730;28;20026;-66
2022/10/19 05:28:05;;;;;;;18.55;16.42;;;;;;;;;;5170806;28;20026;-67
2022/10/19 05:30:36;;;;;;;22.73;18.35;;;;;;;;;;5196031;22;20099;-64
2022/10/19 05:33:06;;;;;;;21.23;19.02;;;;;;;;;;5215040;28;20025;-63
2022/10/19 05:35:36;;;;;;;20.00;18.38;;;;;;;;;;5205896;28;20048;-63
2022/10/19 05:38:07;;;;;;;34.47;19.45;;;;;;;;;;5219682;28;20022;-64
2022/10/19 05:40:37;;;;;;;23.75;20.48;;;;;;;;;;5206595;28;20115;-64
2022/10/19 05:43:07;;;;;;;21.35;18.23;;;;;;;;;;5204846;28;20017;-64
2022/10/19 05:45:37;;;;;;;20.25;18.52;;;;;;;;;;5206251;28;20189;-64
2022/10/19 05:48:08;;;;;;;31.40;20.65;;;;;;;;;;5218692;28;20028;-64
2022/10/19 05:50:38;;;;;;;23.48;21.27;;;;;;;;;;5225818;28;20496;-65
2022/10/19 05:53:08;;;;;;;25.30;19.05;;;;;;;;;;5225618;28;20017;-65
2022/10/19 05:55:38;;;;;;;20.60;18.48;;;;;;;;;;5225412;28;20017;-64
2022/10/19 05:58:09;;;;;;;24.00;20.55;;;;;;;;;;5226743;28;20481;-63
2022/10/19 06:00:39;;;;;;;20.30;18.42;;;;;;;;;;5226069;28;20017;-64
2022/10/19 06:03:09;;;;;;;25.08;18.40;;;;;;;;;;5226987;28;20024;-63
2022/10/19 06:05:40;;;;;;;18.65;17.20;;;;;;;;;;5209324;28;20501;-63
2022/10/19 06:08:10;;;;;;;24.13;21.73;;;;;;;;;;5210031;28;20112;-63
2022/10/19 06:10:40;;;;;;;22.27;20.13;;;;;;;;;;5228176;28;20080;-63
2022/10/19 06:13:11;;;;;;;24.70;20.63;;;;;;;;;;5229624;28;20017;-63
2022/10/19 06:15:41;;;;;;;27.95;19.85;;;;;;;;;;5212057;28;20507;-63
2022/10/19 06:18:12;;;;;;;22.58;20.33;;;;;;;;;;5227066;28;20024;-63
2022/10/19 06:20:42;;;;;;;22.30;20.42;;;;;;;;;;5213176;28;20100;-63
2022/10/19 06:23:12;;;;;;;25.40;22.83;;;;;;;;;;5229421;28;20058;-63
2022/10/19 06:25:43;;;;;;;22.90;19.88;;;;;;;;;;5211989;28;20017;-63
2022/10/19 06:28:13;;;;;;;24.75;22.30;;;;;;;;;;5228571;28;20021;-62
2022/10/19 06:30:43;;;;;;;38.63;22.58;;;;;;;;;;5226608;28;20025;-62
2022/10/19 06:33:14;;;;;;;27.45;21.98;;;;;;;;;;5226911;28;20110;-62
2022/10/19 06:35:44;;;;;;;23.30;20.95;;;;;;;;;;5210582;28;20091;-62
2022/10/19 06:38:14;;;;;;;23.90;21.50;;;;;;;;;;5228685;28;20027;-62
2022/10/19 06:40:45;;;;;;;23.20;21.25;;;;;;;;;;5226702;28;20441;-62
2022/10/19 06:43:15;;;;;;;24.98;22.02;;;;;;;;;;5210445;28;20412;-63
2022/10/19 06:45:45;;;;;;;25.05;22.45;;;;;;;;;;5226785;28;20460;-62
2022/10/19 06:48:16;;;;;;;26.33;20.92;;;;;;;;;;5225429;28;20021;-62
2022/10/19 06:50:54;;;;;;;35.33;24.30;;;;;;;;;;5226781;28;20048;-61
2022/10/19 06:53:24;;;;;;;27.65;23.90;;;;;;;;;;5209989;28;20082;-61
2022/10/19 06:55:58;;;;;;;23.92;21.45;;;;;;;;;;5210812;28;20029;-61
2022/10/19 06:58:29;;;;;;;27.10;23.80;;;;;;;;;;5209920;28;20092;-62
2022/10/19 07:01:00;;;;;;;21.23;19.30;;;;;;;;;;5210339;28;20028;-62
2022/10/19 07:03:30;;;;;;;24.23;21.92;;;;;;;;;;5228050;28;20021;-62
2022/10/19 07:06:02;;;;;;;22.75;20.45;;;;;;;;;;5228460;28;20017;-63
2022/10/19 07:08:32;;;;;;;23.75;19.02;;;;;;;;;;5210088;28;20118;-62
2022/10/19 07:11:05;;;;;;;25.45;21.33;;;;;;;;;;5210288;28;20013;-61
2022/10/19 07:13:35;;;;;;;24.52;19.55;;;;;;;;;;5210820;28;20023;-62
2022/10/19 07:16:10;;;;;;;18.70;17.35;;;;;;;;;;5229731;28;20484;-62
2022/10/19 07:18:41;;;;;;;20.35;18.27;;;;;;;;;;5215526;28;20521;-63
2022/10/19 07:21:13;;;;;;;20.88;19.10;;;;;;;;;;5214461;28;20607;-62
2022/10/19 07:23:44;;;;;;;21.88;19.70;;;;;;;;;;5211712;28;20130;-63
2022/10/19 07:26:22;;;;;;;21.60;16.88;;;;;;;;;;5212993;28;20396;-62
2022/10/19 07:28:53;;;;;;;26.95;19.40;;;;;;;;;;5212043;28;20029;-61
2022/10/19 07:31:24;;;;;;;27.48;15.57;;;;;;;;;;5210054;28;20067;-63
2022/10/19 07:33:56;;;;;;;18.70;16.77;;;;;;;;;;5203271;28;20414;-62
2022/10/19 07:36:27;;;;;;;19.95;16.90;;;;;;;;;;5210130;28;20104;-62
2022/10/19 07:38:57;;;;;;;22.65;15.98;;;;;;;;;;5210020;28;20093;-63
2022/10/19 07:41:27;;;;;;;17.52;15.93;;;;;;;;;;5228097;28;20115;-63
2022/10/19 07:43:58;;;;;;;22.98;16.30;;;;;;;;;;5227985;28;20017;-63
2022/10/19 07:46:32;;;;;;;17.45;13.30;;;;;;;;;;5211176;28;20032;-63
2022/10/19 07:49:04;;;;;;;23.48;13.02;;;;;;;;;;5209952;28;20031;-63
2022/10/19 07:51:35;;;;;;;14.25;12.90;;;;;;;;;;5227453;28;20052;-63
2022/10/19 07:54:05;;;;;;;19.65;14.02;;;;;;;;;;5208578;28;20017;-63
2022/10/19 07:56:36;;;;;;;17.48;12.10;;;;;;;;;;5209072;28;20013;-63
2022/10/19 07:59:06;;;;;;;19.65;12.55;;;;;;;;;;5209421;28;20104;-62
2022/10/19 08:01:39;;;;;;;14.48;10.60;;;;;;;;;;5208727;28;20096;-63
2022/10/19 08:04:10;;;;;;;15.10;13.60;;;;;;;;;;5208607;28;20025;-63
2022/10/19 08:06:40;;;;;;;12.82;11.73;;;;;;;;;;5226682;28;20056;-62
2022/10/19 08:09:10;;;;;;;12.77;10.40;;;;;;;;;;5208431;28;20025;-63
2022/10/19 08:11:40;;;;;;;10.65;8.43;;;;;;;;;;5208476;28;20033;-62
2022/10/19 08:14:11;;;;;;;20.45;11.27;;;;;;;;;;5207472;28;20035;-63
2022/10/19 08:16:43;;;;;;;12.45;11.18;;;;;;;;;;5205749;28;20037;-63
2022/10/19 08:19:14;;;;;;;14.68;11.07;;;;;;;;;;5218975;28;20020;-63
2022/10/19 08:21:45;;;;;;;11.02;9.45;;;;;;;;;;5207008;28;20032;-63
2022/10/19 08:24:16;;;;;;;10.70;9.55;;;;;;;;;;5225148;28;20400;-63
2022/10/19 08:26:49;;;;;;;16.50;7.93;;;;;;;;;;5226692;28;20066;-63
2022/10/19 08:29:20;;;;;;;20.08;9.68;;;;;;;;;;5226784;28;20017;-63
2022/10/19 08:31:51;;;;;;;11.70;8.25;;;;;;;;;;5208494;28;20032;-62
2022/10/19 08:34:22;;;;;;;13.32;8.57;;;;;;;;;;5223155;28;20040;-63
2022/10/19 08:36:52;;;;;;;14.75;8.40;;;;;;;;;;5206379;28;20024;-61
2022/10/19 08:39:22;;;;;;;12.57;9.20;;;;;;;;;;5222705;28;20040;-61
2022/10/19 08:42:03;;;;;;;10.70;8.18;;;;;;;;;;5222547;28;20036;-62
2022/10/19 08:44:34;;;;;;;15.48;8.52;;;;;;;;;;5202000;28;20059;-61
2022/10/19 08:47:18;;;;;;;7.93;7.25;;;;;;;;;;5218843;28;20409;-62
2022/10/19 08:49:49;;;;;;;10.20;7.68;;;;;;;;;;5202560;28;20432;-61
2022/10/19 08:52:29;;;;;;;10.57;6.93;;;;;;;;;;5203890;28;20088;-61
2022/10/19 08:55:07;;;;;;;11.75;7.97;;;;;;;;;;5202317;28;20029;-61
2022/10/19 08:57:56;;;;;;;10.38;6.43;;;;;;;;;;5202436;28;20053;-62
2022/10/19 09:00:45;;;;;;;13.73;7.45;;;;;;;;;;5219159;28;20029;-62
2022/10/19 09:03:39;;;;;;;17.97;7.13;;;;;;;;;;5218892;28;20026;-62
2022/10/19 09:06:21;;;;;;;14.15;7.72;;;;;;;;;;5196064;28;20292;-63
2022/10/19 09:08:52;;;;;;;14.40;7.40;;;;;;;;;;5205628;28;20474;-63
2022/10/19 09:11:27;;;;;;;19.67;7.90;;;;;;;;;;5205858;28;20219;-62
2022/10/19 09:14:09;;;;;;;9.73;6.85;;;;;;;;;;5205960;28;20035;-61
2022/10/19 09:16:40;;;;;;;12.35;7.45;;;;;;;;;;5206265;28;20030;-62
2022/10/19 09:19:13;;;;;;;7.97;6.20;;;;;;;;;;5205713;28;20136;-62
2022/10/19 09:21:55;;;;;;;7.30;6.30;;;;;;;;;;5222304;28;20116;-63
2022/10/19 09:24:27;;;;;;;7.53;6.68;;;;;;;;;;5222073;28;20451;-62
2022/10/19 09:26:59;;;;;;;9.57;6.15;;;;;;;;;;5222595;28;20031;-62
2022/10/19 09:29:35;;;;;;;11.77;6.63;;;;;;;;;;5220972;28;20021;-62
2022/10/19 09:32:26;;;;;;;8.88;6.45;;;;;;;;;;5221320;28;20397;-62
2022/10/19 09:34:59;;;;;;;7.40;6.45;;;;;;;;;;5204498;28;20131;-63
2022/10/19 09:37:31;;;;;;;7.28;6.60;;;;;;;;;;5204926;28;20027;-63
2022/10/19 09:40:02;;;;;;;11.82;6.82;;;;;;;;;;5204913;28;20025;-62
2022/10/19 09:42:32;;;;;;;5.53;5.10;;;;;;;;;;5204976;28;20021;-63
2022/10/19 09:45:15;;;;;;;11.85;6.95;;;;;;;;;;5204504;28;20083;-63
2022/10/19 09:47:47;;;;;;;6.57;4.93;;;;;;;;;;5204952;28;20129;-63
2022/10/19 09:50:24;;;;;;;8.93;5.57;;;;;;;;;;5222815;28;20040;-63
2022/10/19 09:52:59;;;;;;;7.50;6.43;;;;;;;;;;5207199;28;20029;-63
2022/10/19 09:55:37;;;;;;;6.45;5.47;;;;;;;;;;5208484;28;20032;-63
2022/10/19 09:58:13;;;;;;;8.05;7.10;;;;;;;;;;5208562;28;20044;-63
2022/10/19 10:00:44;;;;;;;7.82;6.13;;;;;;;;;;5208083;28;20505;-62
2022/10/19 10:03:23;;;;;;;8.50;7.28;;;;;;;;;;5207818;28;20117;-62
2022/10/19 10:05:57;;;;;;;5.85;5.32;;;;;;;;;;5208029;28;20024;-62
2022/10/19 10:08:34;;;;;;;7.50;6.75;;;;;;;;;;5208152;28;20017;-62
2022/10/19 10:11:07;;;;;;;12.63;6.20;;;;;;;;;;5207619;28;20104;-62
2022/10/19 10:13:39;;;;;;;5.80;5.50;;;;;;;;;;5207840;28;20021;-62
2022/10/19 10:16:12;;;;;;;9.02;5.32;;;;;;;;;;5207777;28;20029;-62
2022/10/19 10:18:53;;;;;;;9.10;5.85;;;;;;;;;;5207650;28;20482;-63
2022/10/19 10:21:33;;;;;;;5.45;4.95;;;;;;;;;;5207670;28;20021;-62
2022/10/19 10:24:23;;;;;;;6.15;5.68;;;;;;;;;;5207417;28;20025;-63
2022/10/19 10:26:58;;;;;;;5.35;4.07;;;;;;;;;;5194246;28;20112;-62
2022/10/19 10:29:29;;;;;;;12.63;4.60;;;;;;;;;;5206929;28;20021;-63
2022/10/19 10:32:08;;;;;;;16.30;5.95;;;;;;;;;;5207463;28;20178;-62
2022/10/19 10:34:40;;;;;;;5.10;4.70;;;;;;;;;;5206981;28;20029;-61
2022/10/19 10:37:19;;;;;;;7.25;5.10;;;;;;;;;;5207658;28;20061;-63
2022/10/19 10:39:54;;;;;;;7.75;4.75;;;;;;;;;;5223879;28;20550;-63
2022/10/19 10:42:30;;;;;;;4.85;4.03;;;;;;;;;;5207591;28;20024;-62
2022/10/19 10:45:01;;;;;;;9.68;5.75;;;;;;;;;;5225143;28;20025;-62
2022/10/19 10:47:31;;;;;;;7.45;4.45;;;;;;;;;;5226804;28;20473;-63
2022/10/19 10:50:05;;;;;;;4.03;3.80;;;;;;;;;;5225854;28;20071;-62
2022/10/19 10:52:35;;;;;;;10.30;3.35;;;;;;;;;;5208807;28;20017;-62
2022/10/19 10:55:09;;;;;;;6.55;3.63;;;;;;;;;;5209105;28;20028;-63
2022/10/19 10:57:44;;;;;;;13.68;5.10;;;;;;;;;;5228123;28;20489;-63
2022/10/19 11:00:16;;;;;;;3.85;3.58;;;;;;;;;;5227359;28;20093;-63
2022/10/19 11:02:52;;;;;;;10.55;4.53;;;;;;;;;;5209866;28;20032;-63
2022/10/19 11:05:44;;;;;;;4.68;4.30;;;;;;;;;;5226506;28;20028;-63
2022/10/19 11:08:21;;;;;;;4.82;4.43;;;;;;;;;;5226796;28;20033;-62
2022/10/19 11:10:58;;;;;;;4.75;4.32;;;;;;;;;;5226776;28;20017;-62
2022/10/19 11:13:34;;;;;;;6.93;4.97;;;;;;;;;;5222023;28;20067;-62
2022/10/19 11:16:16;;;;;;;9.43;4.88;;;;;;;;;;5205848;28;20031;-62
2022/10/19 11:18:49;;;;;;;6.80;4.43;;;;;;;;;;5208204;28;20017;-63
2022/10/19 11:21:33;;;;;;;5.05;4.53;;;;;;;;;;5205933;28;20021;-61
2022/10/19 11:24:03;;;;;;;5.03;4.63;;;;;;;;;;5207654;28;20029;-61
2022/10/19 11:26:40;;;;;;;5.25;4.80;;;;;;;;;;5208433;28;20346;-61
2022/10/19 11:29:10;;;;;;;10.38;5.75;;;;;;;;;;5207384;28;20119;-61
2022/10/19 11:31:41;;;;;;;10.90;4.13;;;;;;;;;;5233448;22;20133;-63
2022/10/19 11:34:27;;;;;;;9.18;5.50;;;;;;;;;;5208415;28;20072;-64
2022/10/19 11:37:16;;;;;;;7.43;4.63;;;;;;;;;;5205775;28;20412;-64
2022/10/19 11:39:46;;;;;;;6.28;5.68;;;;;;;;;;5197868;28;20390;-63
2022/10/19 11:42:16;;;;;;;7.63;4.38;;;;;;;;;;5201531;28;20022;-65
2022/10/19 11:44:48;;;;;;;4.95;4.03;;;;;;;;;;5185907;28;20381;-64
2022/10/19 11:47:22;;;;;;;7.50;4.53;;;;;;;;;;5201393;28;20018;-64
2022/10/19 11:50:27;;;;;;;7.78;4.18;;;;;;;;;;5201036;28;20025;-65
2022/10/19 11:53:16;;;;;;;5.93;5.35;;;;;;;;;;5142842;28;20077;-63
2022/10/19 11:55:52;;;;;;;6.88;4.95;;;;;;;;;;5181391;28;20034;-65
2022/10/19 11:58:28;;;;;;;7.75;5.28;;;;;;;;;;5185931;28;20375;-63
2022/10/19 12:01:02;;;;;;;6.35;4.82;;;;;;;;;;5201275;28;20040;-64
2022/10/19 12:04:00;;;;;;;12.00;4.20;;;;;;;;;;5197361;28;20027;-66
2022/10/19 12:07:09;;;;;;;8.25;3.97;;;;;;;;;;5221286;28;20076;-66
2022/10/19 12:09:48;;;;;;;10.77;6.23;;;;;;;;;;5125007;28;20111;-66
2022/10/19 12:12:21;;;;;;;5.13;4.40;;;;;;;;;;5125239;28;20320;-65
2022/10/19 12:15:04;;;;;;;5.70;5.22;;;;;;;;;;5182034;28;20833;-65
2022/10/19 12:17:36;;;;;;;11.45;5.60;;;;;;;;;;5205569;28;20049;-66
2022/10/19 12:20:26;;;;;;;10.27;6.28;;;;;;;;;;5221190;28;20452;-65
2022/10/19 12:22:58;;;;;;;14.23;5.40;;;;;;;;;;5204389;28;20557;-65
2022/10/19 12:25:28;;;;;;;6.97;4.78;;;;;;;;;;5204460;28;20049;-65
2022/10/19 12:27:58;;;;;;;12.73;7.03;;;;;;;;;;5204895;28;20127;-65
2022/10/19 12:30:29;;;;;;;9.68;5.18;;;;;;;;;;5204789;28;20079;-65
2022/10/19 12:33:02;;;;;;;6.07;5.47;;;;;;;;;;5221437;28;20022;-65
2022/10/19 12:35:45;;;;;;;6.90;5.82;;;;;;;;;;5221664;28;20029;-65
2022/10/19 12:38:35;;;;;;;13.63;6.63;;;;;;;;;;5221426;28;20183;-65
2022/10/19 12:41:09;;;;;;;11.43;6.43;;;;;;;;;;5167408;28;20131;-65
2022/10/19 12:43:52;;;;;;;10.38;6.18;;;;;;;;;;5208482;28;20022;-66
2022/10/19 12:46:22;;;;;;;11.20;6.93;;;;;;;;;;5225292;28;20048;-66
2022/10/19 12:49:11;;;;;;;6.68;6.07;;;;;;;;;;5209996;28;20018;-65
2022/10/19 12:51:45;;;;;;;12.48;5.88;;;;;;;;;;5209979;28;20013;-65
2022/10/19 12:54:20;;;;;;;7.47;6.65;;;;;;;;;;5209820;28;20104;-66
2022/10/19 12:56:52;;;;;;;16.65;7.00;;;;;;;;;;5225537;28;20468;-65
2022/10/19 12:59:28;;;;;;;7.20;5.22;;;;;;;;;;5208520;28;20025;-65
2022/10/19 13:01:59;;;;;;;5.53;4.95;;;;;;;;;;5208705;28;20071;-65
2022/10/19 13:04:31;;;;;;;9.45;5.75;;;;;;;;;;5208265;28;20029;-67
2022/10/19 13:07:02;;;;;;;7.07;6.32;;;;;;;;;;5208330;28;20108;-65
2022/10/19 13:09:34;;;;;;;6.30;5.53;;;;;;;;;;5224844;28;20171;-65
2022/10/19 13:12:13;;;;;;;6.40;5.80;;;;;;;;;;5206876;28;20010;-66
2022/10/19 13:14:46;;;;;;;5.47;5.15;;;;;;;;;;5216757;28;20025;-65
2022/10/19 13:17:32;;;;;;;7.30;6.70;;;;;;;;;;5204059;28;20115;-65
2022/10/19 13:20:12;;;;;;;7.70;6.93;;;;;;;;;;5204141;28;20088;-65
2022/10/19 13:22:45;;;;;;;7.65;6.00;;;;;;;;;;5188492;28;20069;-65
2022/10/19 13:25:15;;;;;;;11.85;6.13;;;;;;;;;;5188655;28;20034;-66
2022/10/19 13:27:47;;;;;;;7.20;6.53;;;;;;;;;;5204017;28;20026;-66
2022/10/19 13:30:40;;;;;;;10.73;7.05;;;;;;;;;;5186870;28;20056;-68
2022/10/19 13:35:59;;;;;;;6.18;5.78;;;;;;;;;;5188651;28;20401;-66
2022/10/19 13:38:32;;;;;;;11.10;7.78;;;;;;;;;;5227361;28;20398;-65
2022/10/19 13:41:03;;;;;;;8.13;6.55;;;;;;;;;;5205628;28;20405;-66
2022/10/19 13:43:38;;;;;;;14.18;6.47;;;;;;;;;;5219454;28;20022;-64
2022/10/19 13:46:11;;;;;;;8.50;7.00;;;;;;;;;;5188481;28;20025;-65
2022/10/19 13:48:53;;;;;;;6.25;5.35;;;;;;;;;;5187362;28;20385;-65
2022/10/19 13:51:39;;;;;;;8.50;5.70;;;;;;;;;;5187903;28;20048;-64
2022/10/19 13:54:28;;;;;;;7.43;6.70;;;;;;;;;;5188042;28;20105;-65
2022/10/19 13:57:17;;;;;;;4.82;4.47;;;;;;;;;;5203941;28;20030;-65
2022/10/19 13:59:52;;;;;;;9.18;8.43;;;;;;;;;;5203422;28;20026;-65
2022/10/19 14:02:41;;;;;;;8.23;6.38;;;;;;;;;;5203545;28;20022;-65
2022/10/19 14:05:17;;;;;;;9.40;7.57;;;;;;;;;;5202969;28;20171;-66
2022/10/19 14:07:55;;;;;;;12.32;6.38;;;;;;;;;;5203094;28;20022;-65
2022/10/19 14:10:26;;;;;;;5.93;5.43;;;;;;;;;;5188062;28;20021;-65
2022/10/19 14:12:56;;;;;;;10.45;6.10;;;;;;;;;;5188089;28;20375;-66
2022/10/19 14:15:29;;;;;;;6.63;6.05;;;;;;;;;;5203167;28;20022;-65
2022/10/19 14:17:59;;;;;;;13.75;5.75;;;;;;;;;;5186760;28;20119;-65
2022/10/19 14:20:30;;;;;;;6.80;6.30;;;;;;;;;;5192766;28;20045;-65
2022/10/19 14:23:19;;;;;;;10.00;6.63;;;;;;;;;;5223062;28;20040;-65
2022/10/19 14:26:15;;;;;;;10.00;6.68;;;;;;;;;;5222711;28;20021;-65
2022/10/19 14:28:50;;;;;;;6.60;4.97;;;;;;;;;;5203333;28;20036;-65
2022/10/19 14:31:21;;;;;;;11.68;6.28;;;;;;;;;;5207762;28;20550;-65
2022/10/19 14:33:55;;;;;;;13.25;6.90;;;;;;;;;;5206683;28;20390;-66
2022/10/19 14:36:29;;;;;;;8.85;6.00;;;;;;;;;;5207311;28;20029;-65
2022/10/19 14:38:59;;;;;;;7.50;6.05;;;;;;;;;;5206248;28;20116;-66
2022/10/19 14:41:31;;;;;;;8.02;5.97;;;;;;;;;;5207371;28;20112;-66
2022/10/19 14:44:20;;;;;;;6.20;5.70;;;;;;;;;;5221968;28;20106;-66
2022/10/19 14:46:50;;;;;;;8.82;6.38;;;;;;;;;;5207082;28;20392;-66
2022/10/19 14:49:21;;;;;;;4.95;4.60;;;;;;;;;;5222209;28;20021;-66
2022/10/19 14:51:54;;;;;;;7.90;5.53;;;;;;;;;;5206154;28;20025;-65
2022/10/19 14:54:35;;;;;;;7.72;7.18;;;;;;;;;;5222280;28;20049;-65
2022/10/19 14:57:07;;;;;;;6.63;6.18;;;;;;;;;;5203276;28;20022;-65
2022/10/19 14:59:37;;;;;;;9.23;5.78;;;;;;;;;;5212163;28;20519;-65
2022/10/19 15:02:17;;;;;;;9.30;6.38;;;;;;;;;;5223038;28;20025;-64
2022/10/19 15:04:47;;;;;;;;;;;;;;;;;;5206450;28;20021;-64
2022/10/19 15:07:19;;;;;;;7.33;4.87;;;;;;;;;;5222445;28;19905;-65
2022/10/19 15:09:57;;;;;;;14.02;6.30;;;;;;;;;;5206144;28;20267;-65